LEVX/VGO METAR and TAF weather

Enter ICAO airport designator
Station Type Date Time Source
LEVX METAR 2019/06/26 05:30 UTC NOAA

LEVX 260530Z VRB02KT 8000 FEW014 15/15 Q1014 TEMPO 4000 -SHRA BKN025TCU


Station Type Date Time Source
LEVX Decoded METAR 2019/06/26 05:30 UTC NOAA

Vigo / Peinador, Spain (LEVX) 42-13N 008-38W 255M
Jun 26, 2019 - 01:30 AM EDT / 2019.06.26 0530 UTC
Wind: Variable at 2 MPH (2 KT):0
Visibility: 4 mile(s):0
Sky conditions: mostly clear
Weather: Towering cumulus clouds observed
Temperature: 59 F (15 C)
Dew Point: 59 F (15 C)
Relative Humidity: 100%
Pressure (altimeter): 29.94 in. Hg (1014 hPa)
ob: LEVX 260530Z VRB02KT 8000 FEW014 15/15 Q1014 TEMPO 4000 -SHRA BKN025TCU
cycle: 5

Station Type Date Time Source
LEVX TAF 2019/06/26 06:33 UTC NOAA

TAF
AMD TAF
AMD LEVX 260527Z 2606/2706 VRB05KT 9000 SCT012 SCT025 TX23/2612Z TN14/2705Z PROB40
TEMPO 2606/2608 4000 -RA SHRA BKN010 BKN025TCU
TEMPO 2608/2612 18010KT 3000 RA SHRA BKN010 BKN025TCU
TEMPO 2612/2615 24010KT PROB40
TEMPO 2615/2619 30010KT PROB40
TEMPO 2622/2706 3000 BR

Example: see airport list